• Join FlightAware (Why Join?)
  • Login
  • US Flag 
12:43AM EST


 

Airport Tracker/Info


-or-


 

Live Flight TrackerFlight Track Log ✈ N160AJ ✈ 09-May-2013 ✈ KORH - KSLN

Flight Track Log - Related Links

Times and Time Zones

All times are in EDT time to prevent confusion due to time zone crossing. See the N160AJ flight status page for this flight to view local times or setup timezone preferences in your user account.

Time Position Orientation Groundspeed Altitude Reporting Facility
EDT Latitude Longitude Course Direction KTS MPH feet Rate Location/Type
07:12PM 42.2614 -71.8508 183° South 173 199 2,200  Level Boston Center
07:13PM 42.2175 -71.8542 183° South 226 260 4,000 3,180 Climbing Boston Center
07:14PM 42.2033 -71.9300 256° West 244 281 8,100 3,780 Climbing Boston Center
07:15PM 42.1831 -72.0394 256° West 274 315 11,600 2,700 Climbing Boston Center
07:16PM 42.1958 -72.1514 279° West 313 360 13,600 2,160 Climbing Boston Center
07:17PM 42.2106 -72.2550 281° West 343 395 16,000 2,700 Climbing Boston Center
07:18PM 42.2317 -72.4344 279° West 368 423 19,100 2,760 Climbing Boston Center
07:19PM 42.2481 -72.5803 279° West 382 440 21,600 2,460 Climbing Boston Center
07:20PM 42.2644 -72.7292 279° West 392 451 24,100 2,040 Climbing Boston Center
07:21PM 42.2808 -72.8806 278° West 402 463 25,700 1,620 Climbing Boston Center
07:22PM 42.2800 -73.0489 270° West 425 489 27,400 1,620 Climbing Boston Center
07:23PM 42.2811 -73.2175 271° West 444 511 29,000 1,620 Climbing Boston Center
07:24PM 42.2861 -73.3858 272° West 452 520 30,700 2,700 Climbing Boston Center
07:25PM 42.2867 -73.5542 270° West 458 527 34,500 2,700 Climbing Boston Center
07:26PM 42.2828 -73.7225 268° West 444 511 36,100 1,380 Climbing Boston Center
07:27PM 42.2828 -73.8853 270° West 444 511 37,300 1,200 Climbing Boston Center
07:28PM 42.2847 -74.0481 271° West 444 511 38,600 1,020 Climbing Boston Center
07:29PM 42.2825 -74.2081 269° West 439 505 39,400 660 Climbing Boston Center
07:30PM 42.2819 -74.3681 270° West 439 505 40,000 300 Climbing Boston Center
07:31PM 42.2792 -74.5222 269° West 434 499 40,000  Level Boston Center
07:33PM 42.2769 -74.8178 270° West 435 501 40,000  Level New York Center
07:34PM 42.2767 -74.9467 270° West 435 501 40,000  Level New York Center
07:35PM 42.2722 -75.1258 268° West 440 506 40,000  Level New York Center
07:36PM 42.2728 -75.2828 270° West 440 506 40,000  Level New York Center
07:37PM 42.2686 -75.4450 268° West 440 506 40,000  Level New York Center
07:38PM 42.2664 -75.6044 269° West 440 506 40,000  Level New York Center
07:39PM 42.2639 -75.7611 269° West 435 501 40,000  Level New York Center
07:40PM 42.2614 -75.9178 269° West 435 501 40,000  Level New York Center
07:41PM 42.2564 -76.0800 268° West 430 495 40,000  Level New York Center
07:42PM 42.2536 -76.2367 269° West 430 495 40,000  Level New York Center
07:43PM 42.2481 -76.3986 267° West 430 495 40,000  Level New York Center
07:43PM 42.2467 -76.4594 268° West 425 489 40,000  Level Cleveland Center
07:44PM 42.2439 -76.6194 269° West 425 489 40,000  Level Cleveland Center
07:45PM 42.2389 -76.7769 268° West 425 489 40,000  Level Cleveland Center
07:46PM 42.2356 -76.9342 268° West 425 489 40,000  Level Cleveland Center
07:47PM 42.2303 -77.0944 268° West 425 489 40,000  Level Cleveland Center
07:48PM 42.2261 -77.2350 268° West 425 489 40,000  Level Cleveland Center
07:49PM 42.2200 -77.3922 267° West 425 489 40,000  Level Cleveland Center
07:50PM 42.2158 -77.5467 268° West 425 489 40,000  Level Cleveland Center
07:51PM 42.2117 -77.7011 268° West 425 489 40,000  Level Cleveland Center
07:52PM 42.2050 -77.8556 267° West 425 489 40,000  Level Cleveland Center
07:53PM 42.2000 -78.0044 267° West 420 483 40,000  Level Cleveland Center
07:54PM 42.1950 -78.1561 268° West 420 483 40,000  Level Cleveland Center
07:55PM 42.1878 -78.3075 266° West 420 483 40,000  Level Cleveland Center
07:56PM 42.1822 -78.4564 267° West 409 471 40,000  Level Cleveland Center
07:57PM 42.1764 -78.6050 267° West 404 465 40,000  Level Cleveland Center
07:58PM 42.1686 -78.7539 266° West 409 471 40,000  Level Cleveland Center
07:59PM 42.1625 -78.9108 267° West 409 471 40,000  Level Cleveland Center
08:00PM 42.1542 -79.0650 266° West 409 471 40,000  Level Cleveland Center
08:01PM 42.1478 -79.2136 267° West 409 471 40,000  Level Cleveland Center
08:02PM 42.1392 -79.3678 266° West 404 465 40,000  Level Cleveland Center
08:03PM 42.1300 -79.5136 265° West 404 465 40,000  Level Cleveland Center
08:04PM 42.1231 -79.6594 266° West 404 465 40,000  Level Cleveland Center
08:05PM 42.1158 -79.8247 267° West 404 465 40,000  Level Cleveland Center
08:06PM 42.1064 -79.9731 265° West 404 465 40,000  Level Cleveland Center
08:07PM 42.0967 -80.1242 265° West 404 465 40,000  Level Cleveland Center
08:08PM 42.0889 -80.2753 266° West 409 471 40,000  Level Cleveland Center
08:09PM 42.0808 -80.4292 266° West 403 464 40,000  Level Cleveland Center
08:10PM 42.0725 -80.5747 266° West 403 464 40,000  Level Cleveland Center
08:11PM 42.0619 -80.7258 265° West 403 464 40,000  Level Cleveland Center
08:12PM 42.0533 -80.8600 265° West 403 464 40,000  Level Cleveland Center
08:13PM 42.0425 -81.0136 265° West 411 473 40,000  Level Cleveland Center
08:14PM 42.0336 -81.1619 265° West 405 466 40,000  Level Cleveland Center
08:15PM 42.0244 -81.3156 265° West 405 466 40,000  Level Cleveland Center
08:16PM 42.0044 -81.4661 260° West 410 472 40,000  Level Cleveland Center
08:17PM 41.9867 -81.6111 261° West 404 465 40,000  Level Cleveland Center
08:18PM 41.9706 -81.7589 262° West 409 471 40,000  Level Cleveland Center
08:19PM 41.9522 -81.9067 261° West 409 471 40,000  Level Cleveland Center
08:20PM 41.9339 -82.0569 261° West 414 476 40,000  Level Cleveland Center
08:21PM 41.9150 -82.2183 261° West 414 476 40,000  Level Cleveland Center
08:22PM 41.8939 -82.3711 260° West 414 476 40,000  Level Cleveland Center
08:23PM 41.8747 -82.5242 261° West 414 476 40,000  Level Cleveland Center
08:24PM 41.8553 -82.6742 260° West 409 471 40,000  Level Cleveland Center
08:25PM 41.8358 -82.8267 260° West 409 471 40,000  Level Cleveland Center
08:26PM 41.8161 -82.9764 260° West 409 471 40,000  Level Cleveland Center
08:27PM 41.7986 -83.1094 260° West 409 471 40,000  Level Cleveland Center
08:28PM 41.7764 -83.2589 259° West 409 471 40,000  Level Cleveland Center
08:29PM 41.7606 -83.4086 262° West 409 471 40,000  Level Cleveland Center
08:30PM 41.7378 -83.5581 259° West 409 471 40,000  Level Cleveland Center
08:31PM 41.7172 -83.7072 260° West 409 471 40,000  Level Cleveland Center
08:32PM 41.6983 -83.8567 260° West 414 476 40,000  Level Cleveland Center
08:33PM 41.6775 -84.0056 259° West 414 476 40,000  Level Cleveland Center
08:34PM 41.6561 -84.1575 259° West 409 471 40,000  Level Cleveland Center
08:37PM 41.6086 -84.5164 260° West 396 456 40,000  Level Chicago Center
08:38PM 41.5878 -84.6586 259° West 392 451 40,000  Level Chicago Center
08:39PM 41.5672 -84.8006 259° West 390 449 40,000  Level Chicago Center
08:40PM 41.5453 -84.9439 258° West 394 453 40,000  Level Chicago Center
08:41PM 41.5244 -85.0847 259° West 388 447 40,000  Level Chicago Center
08:42PM 41.4989 -85.2547 259° West 388 447 40,000  Level Chicago Center
08:43PM 41.4753 -85.3992 258° West 391 450 40,000  Level Chicago Center
08:44PM 41.4536 -85.5433 259° West 391 450 40,000  Level Chicago Center
08:45PM 41.4308 -85.6825 258° West 384 442 40,000  Level Chicago Center
08:46PM 41.4083 -85.8219 258° West 384 442 40,000  Level Chicago Center
08:47PM 41.3861 -85.9606 258° West 381 438 40,000  Level Chicago Center
08:48PM 41.3628 -86.1033 258° West 392 451 40,000  Level Chicago Center
08:49PM 41.3383 -86.2461 257° West 395 455 40,000  Level Chicago Center
08:50PM 41.3089 -86.4192 257° West 400 460 40,000  Level Chicago Center
08:51PM 41.2858 -86.5592 258° West 388 447 40,000  Level Chicago Center
08:52PM 41.2625 -86.6961 257° West 382 440 40,000  Level Chicago Center
08:53PM 41.2350 -86.8486 257° West 381 438 40,000  Level Chicago Center
08:54PM 41.2131 -86.9853 258° West 380 437 40,000  Level Chicago Center
08:55PM 41.1889 -87.1236 257° West 384 442 40,000  Level Chicago Center
08:56PM 41.1644 -87.2611 257° West 382 440 40,000  Level Chicago Center
08:57PM 41.1397 -87.4003 257° West 385 443 40,000  Level Chicago Center
08:58PM 41.1100 -87.5661 257° West 386 444 40,000  Level Chicago Center
08:59PM 41.0850 -87.7050 257° West 387 445 40,000  Level Chicago Center
09:00PM 41.0594 -87.8444 256° West 388 447 40,000  Level Chicago Center
09:01PM 41.0344 -87.9850 257° West 390 449 40,000  Level Chicago Center
09:02PM 41.0083 -88.1244 256° West 389 448 40,000  Level Chicago Center
09:03PM 40.9783 -88.2914 257° West 389 448 40,000  Level Chicago Center
09:05PM 40.9528 -88.4308 256° West 391 450 40,000  Level Chicago Center
09:06PM 40.9253 -88.5703 255° West 391 450 40,000  Level Chicago Center
09:07PM 40.8997 -88.7108 257° West 394 453 40,000  Level Chicago Center
09:08PM 40.8733 -88.8486 256° West 396 456 40,000  Level Chicago Center
09:09PM 40.8464 -88.9917 256° West 393 452 40,000  Level Chicago Center
09:10PM 40.8125 -89.1592 255° West 397 457 40,000  Level Chicago Center
09:11PM 40.7847 -89.3006 255° West 397 457 40,000  Level Chicago Center
09:12PM 40.7567 -89.4414 255° West 398 458 40,000  Level Chicago Center
09:13PM 40.7286 -89.5828 255° West 398 458 40,000  Level Chicago Center
09:14PM 40.7042 -89.7236 257° West 396 456 40,000  Level Chicago Center
09:15PM 40.6694 -89.8894 255° West 394 453 40,000  Level Chicago Center
09:16PM 40.6389 -90.0286 254° West 400 460 40,000  Level Chicago Center
09:17PM 40.6106 -90.1714 255° West 400 460 40,000  Level Chicago Center
09:18PM 40.5817 -90.3081 254° West 413 475 40,000  Level Chicago Center
09:19PM 40.5450 -90.4814 254° West 411 473 40,000  Level Chicago Center
09:20PM 40.5144 -90.6250 254° West 411 473 40,000  Level Chicago Center
09:21PM 40.4850 -90.7683 255° West 409 471 40,000  Level Chicago Center
09:22PM 40.4539 -90.9117 254° West 408 470 40,000  Level Chicago Center
09:23PM 40.4233 -91.0539 254° West 407 468 40,000  Level Chicago Center
09:24PM 40.3917 -91.1956 254° West 405 466 40,000  Level Chicago Center
09:25PM 40.3611 -91.3431 255° West 403 464 40,000  Level Kansas City Center
09:26PM 40.3308 -91.4828 254° West 401 461 40,000  Level Kansas City Center
09:27PM 40.3003 -91.6222 254° West 401 461 40,000  Level Kansas City Center
09:28PM 40.2686 -91.7617 253° West 402 463 40,000  Level Kansas City Center
09:29PM 40.2392 -91.9033 255° West 404 465 40,000  Level Kansas City Center
09:30PM 40.2017 -92.0717 254° West 404 465 40,000  Level Kansas City Center
09:31PM 40.1703 -92.2122 254° West 404 465 40,000  Level Kansas City Center
09:32PM 40.1375 -92.3547 253° West 400 460 40,000  Level Kansas City Center
09:33PM 40.1058 -92.4889 253° West 402 463 40,000  Level Kansas City Center
09:34PM 40.0719 -92.6469 254° West 404 465 40,000  Level Kansas City Center
09:35PM 40.0414 -92.7739 253° West 401 461 40,000  Level Kansas City Center
09:36PM 40.0092 -92.9133 253° West 402 463 40,000  Level Kansas City Center
09:37PM 39.9769 -93.0525 253° West 402 463 40,000  Level Kansas City Center
09:38PM 39.9433 -93.1889 252° West 399 459 40,000  Level Kansas City Center
09:39PM 39.9053 -93.3539 253° West 400 460 40,000  Level Kansas City Center
09:40PM 39.8728 -93.4919 253° West 401 461 40,000  Level Kansas City Center
09:41PM 39.8389 -93.6269 252° West 398 458 40,000  Level Kansas City Center
09:43PM 39.8042 -93.7728 253° West 400 460 40,000  Level Kansas City Center
09:44PM 39.7742 -93.9022 253° West 396 456 40,000  Level Kansas City Center
09:45PM 39.7369 -94.0544 252° West 397 457 40,000 -300 Level Kansas City Center
09:46PM 39.7039 -94.1842 252° West 393 452 39,500 -960 Descending Kansas City Center
09:47PM 39.6689 -94.3342 253° West 389 448 38,100 -780 Descending Kansas City Center
09:48PM 39.6356 -94.4653 252° West 396 456 38,000 -180 Descending Kansas City Center
09:49PM 39.6031 -94.5950 252° West 398 458 37,800 -900 Descending Kansas City Center
09:50PM 39.5661 -94.7469 253° West 396 456 36,200 -1,500 Descending Kansas City Center
09:51PM 39.5344 -94.8728 252° West 387 445 34,800 -1,560 Descending Kansas City Center
09:52PM 39.4969 -95.0192 252° West 385 443 33,100 -1,620 Descending Kansas City Center
09:53PM 39.4614 -95.1578 252° West 394 453 31,600 -1,560 Descending Kansas City Center
09:54PM 39.4250 -95.3003 252° West 420 483 30,000 -1,680 Descending Kansas City Center
09:55PM 39.3839 -95.4592 252° West 434 499 28,200 -1,620 Descending Kansas City Center
09:56PM 39.3500 -95.5881 251° West 443 510 26,800 -1,680 Descending Kansas City Center
09:57PM 39.3067 -95.7586 252° West 448 516 24,800 -1,740 Descending Kansas City Center
09:58PM 39.2672 -95.9014 250° West 444 511 23,300 -1,620 Descending Kansas City Center
09:59PM 39.2242 -96.0639 251° West 430 495 21,500 -1,980 Descending Kansas City Center
10:00PM 39.1883 -96.1989 251° West 418 481 19,300 -2,220 Descending Kansas City Center
10:01PM 39.1492 -96.3464 251° West 389 448 17,000 -2,220 Descending Kansas City Center
10:02PM 39.1139 -96.4778 251° West 390 449 14,800 -2,160 Descending Kansas City Center
10:03PM 39.0800 -96.6039 251° West 359 413 12,600 -2,160 Descending Kansas City Center
10:04PM 39.0528 -96.7061 251° West 314 361 10,500 -1,800 Descending Kansas City Center
10:05PM 39.0261 -96.8033 251° West 275 316 9,000 -1,260 Descending Kansas City Center
10:06PM 39.0025 -96.8911 251° West 268 308 8,000 -540 Descending Kansas City Center
10:07PM 38.9761 -96.9864 250° West 270 311 8,000  Level Kansas City Center
10:08PM 38.9497 -97.0803 250° West 270 311 8,000  Level Kansas City Center
10:09PM 38.9217 -97.1750 249° West 272 313 8,000 -120 Level Kansas City Center
10:10PM 38.8961 -97.2603 249° West 267 307 7,800 -840 Descending Kansas City Center
10:11PM 38.8681 -97.3508 248° West 264 304 6,400 -1,500 Descending Kansas City Center
10:12PM 38.8394 -97.4419 248° West 264 304 4,800 -1,380 Descending Kansas City Center
10:13PM 38.8128 -97.5253 248° West 262 302 3,600 -780 Descending Kansas City Center
10:14PM 38.7842 -97.6039 245° Southwest 233 268 3,300 -420 Descending Kansas City Center
10:15PM 38.7283 -97.6031 179° South 184 212 2,800 -660 Descending Kansas City Center
10:16PM 38.7342 -97.6439 280° West 127 146 2,000 -540 Descending Kansas City Center
10:17PM 38.7650 -97.6478 354° North 121 139 1,800 -240 Descending Kansas City Center